Observations for Trim Market St
| Time | AQI | Temp °C | Hum % | Pres Pa | CO μg/m³ | H₂S μg/m³ | NO μg/m³ | NO₂ μg/m³ | O₃ μg/m³ | SO₂ μg/m³ | PM1 μg/m³ | PM2.5 μg/m³ | PM10 μg/m³ |
|---|---|---|---|---|---|---|---|---|---|---|---|---|---|
| Wednesday 15 July 2026 | |||||||||||||
| 11:24 | 1 | 33.9 | 36 | 66,147 | 0 | 0 | 0 | 0 | 29.91 | 0 | 8.55 | 13.74 | 19.13 |
| 11:23 | 1 | 33.9 | 36 | 66,163 | 0 | 0 | 0 | 0 | 29.51 | 0 | 8.55 | 12.67 | 19.13 |
| 11:19 | 1 | 33.8 | 36 | 66,117 | 0 | 0 | 0 | 0 | 21.5 | 0 | 8.55 | 12.66 | 16.63 |
| 11:12 | 1 | 33.5 | 37 | 66,035 | 0 | 0 | 0 | 0 | 17.73 | 0 | 7.84 | 13.14 | 19.05 |
| 11:11 | 1 | 33.4 | 37 | 65,991 | 0 | 0 | 0 | 0 | 19.78 | 0 | 9.98 | 15.25 | 22.32 |
| 11:10 | 1 | 33.3 | 37 | 65,991 | 0 | 0 | 0 | 0 | 21.7 | 0 | 9.26 | 13.64 | 18.19 |
| 11:09 | 1 | 33.3 | 37 | 65,964 | 0 | 0 | 0 | 0 | 15.81 | 0 | 9.98 | 14.18 | 19.02 |
| 11:08 | 1 | 33.2 | 37 | 65,953 | 0 | 0 | 0 | 0 | 26.65 | 0 | 9.26 | 14.17 | 19.83 |
| 11:07 | 1 | 33.2 | 37 | 65,975 | 0 | 0 | 0 | 0 | 11.58 | 0 | 8.55 | 14.71 | 19.84 |
| 11:06 | 1 | 33.1 | 38 | 65,943 | 0 | 0 | 0 | 0 | 14.51 | 0 | 7.84 | 13.63 | 18.18 |
| 11:05 | 1 | 33.1 | 38 | 65,968 | 0 | 0 | 0 | 0 | 14.24 | 0 | 10.69 | 14.16 | 19.81 |
| 11:04 | 1 | 33 | 38 | 65,933 | 0 | 0 | 0 | 0 | 8.41 | 0 | 7.84 | 15.22 | 20.62 |
| 11:03 | 1 | 33 | 38 | 65,927 | 0 | 0 | 0 | 0 | 19.52 | 0 | 9.26 | 14.67 | 19.79 |
| 11:02 | 1 | 32.9 | 38 | 65,886 | 0 | 0 | 0 | 0 | 15.24 | 0 | 10.69 | 15.73 | 22.24 |
| 11:01 | 1 | 32.9 | 38 | 65,894 | 0 | 0 | 0 | 0 | 12.58 | 0 | 9.98 | 14.14 | 21.42 |
| 11:00 | 1 | 32.8 | 38 | 65,872 | 0 | 0 | 0 | 0 | 17.01 | 0 | 9.26 | 16.26 | 23.05 |
| 10:59 | 1 | 32.8 | 38 | 65,815 | 0 | 0 | 0 | 0 | 0 | 0 | 10.69 | 16.23 | 25.46 |
| 10:56 | 1 | 32.7 | 39 | 65,801 | 0 | 0 | 0 | 0 | 9.52 | 0 | 9.98 | 16.73 | 22.97 |
| 10:55 | 1 | 32.7 | 39 | 65,784 | 0 | 0 | 0 | 0 | 8.8 | 0 | 10.69 | 16.19 | 22.95 |
| 10:53 | 1 | 32.5 | 40 | 65,684 | 0 | 0 | 0 | 0 | 6.56 | 0 | 7.84 | 12.43 | 18.02 |